createdAt,value
2022-09-14T00:01:45.117Z,2.80
2022-09-14T00:04:20.184Z,3.22
2022-09-14T00:06:49.349Z,2.92
2022-09-14T00:09:20.678Z,3.75
2022-09-14T00:11:49.213Z,3.30
2022-09-14T00:14:21.174Z,3.70
2022-09-14T00:16:51.019Z,3.20
2022-09-14T00:19:23.394Z,4.15
2022-09-14T00:21:54.486Z,3.13
2022-09-14T00:24:24.278Z,3.83
2022-09-14T00:26:52.964Z,3.60
2022-09-14T00:29:21.437Z,3.00
2022-09-14T00:31:49.888Z,3.05
2022-09-14T00:34:20.873Z,2.83
2022-09-14T00:36:52.980Z,2.85
2022-09-14T00:39:25.098Z,2.70
2022-09-14T00:41:54.495Z,2.60
2022-09-14T00:45:02.496Z,2.35
2022-09-14T00:47:33.104Z,2.95
2022-09-14T00:50:05.647Z,2.70
2022-09-14T00:52:38.582Z,3.00
2022-09-14T00:55:11.943Z,3.08
2022-09-14T00:57:45.245Z,2.80
2022-09-14T01:00:17.843Z,2.88
2022-09-14T01:02:46.705Z,3.28
2022-09-14T01:05:17.588Z,2.47
2022-09-14T01:08:13.391Z,2.50
2022-09-14T01:11:08.083Z,3.03
2022-09-14T01:13:52.181Z,3.97
2022-09-14T01:16:32.430Z,3.13
2022-09-14T01:19:06.502Z,2.92
2022-09-14T01:21:39.172Z,2.90
2022-09-14T01:24:17.904Z,3.30
2022-09-14T01:27:30.100Z,3.33
2022-09-14T01:30:08.251Z,2.78
2022-09-14T01:32:44.243Z,3.53
2022-09-14T01:35:22.253Z,2.40
2022-09-14T01:37:57.206Z,2.15
2022-09-14T01:40:31.631Z,3.08
2022-09-14T01:43:09.179Z,3.75
2022-09-14T01:45:42.167Z,2.70
2022-09-14T01:48:13.875Z,2.97
2022-09-14T01:50:47.375Z,3.00
2022-09-14T01:53:23.851Z,3.20
2022-09-14T01:55:59.094Z,2.60
2022-09-14T01:58:35.935Z,3.50
2022-09-14T02:01:08.051Z,2.70
2022-09-14T02:03:43.001Z,2.53
2022-09-14T02:06:18.031Z,3.42
2022-09-14T02:08:47.314Z,3.20
2022-09-14T02:11:15.753Z,3.05
2022-09-14T02:13:45.581Z,2.60
2022-09-14T02:16:14.428Z,2.45
2022-09-14T02:18:43.945Z,2.83
2022-09-14T02:21:21.073Z,2.78
2022-09-14T02:23:50.171Z,3.50
2022-09-14T02:26:22.471Z,2.50
2022-09-14T02:28:56.005Z,2.60
2022-09-14T02:31:40.856Z,2.35
2022-09-14T02:34:17.425Z,2.83
2022-09-14T02:36:54.950Z,2.00
2022-09-14T02:39:31.715Z,2.10
2022-09-14T02:42:13.128Z,2.40
2022-09-14T02:44:55.040Z,2.42
2022-09-14T02:47:31.718Z,2.60
2022-09-14T02:50:08.027Z,2.95
2022-09-14T02:52:42.299Z,2.30
2022-09-14T02:55:15.651Z,2.50
2022-09-14T02:58:05.613Z,2.78
2022-09-14T03:00:40.395Z,2.55
2022-09-14T03:03:11.534Z,2.65
2022-09-14T03:05:40.285Z,2.70
2022-09-14T03:08:10.323Z,2.80
2022-09-14T03:10:39.464Z,3.78
2022-09-14T03:13:07.818Z,3.55
2022-09-14T03:15:37.627Z,3.05
2022-09-14T03:18:11.062Z,3.33
2022-09-14T03:20:42.369Z,2.63
2022-09-14T03:23:11.602Z,3.15
2022-09-14T03:25:42.189Z,2.08
2022-09-14T03:28:12.950Z,3.03
2022-09-14T03:30:42.750Z,3.10
2022-09-14T03:33:11.102Z,3.55
2022-09-14T03:35:39.469Z,2.83
2022-09-14T03:38:08.564Z,2.50
2022-09-14T03:40:37.020Z,2.42
2022-09-14T03:43:05.409Z,2.15
2022-09-14T03:45:33.830Z,2.55
2022-09-14T03:48:05.328Z,2.47
2022-09-14T03:50:34.055Z,2.80
2022-09-14T03:53:02.447Z,2.08
2022-09-14T03:55:30.819Z,2.03
2022-09-14T03:57:59.181Z,2.60
2022-09-14T04:00:27.775Z,2.15
2022-09-14T04:02:56.284Z,2.45
2022-09-14T04:05:26.149Z,2.33
2022-09-14T04:07:54.501Z,2.53
2022-09-14T04:10:22.951Z,3.15
2022-09-14T04:12:51.448Z,3.13
2022-09-14T04:15:20.045Z,2.70
2022-09-14T04:17:48.766Z,2.63
2022-09-14T04:20:18.323Z,2.90
2022-09-14T04:22:48.553Z,3.00
2022-09-14T04:25:17.231Z,2.90
2022-09-14T04:27:55.029Z,2.28
2022-09-14T04:30:35.493Z,3.10
2022-09-14T04:33:03.858Z,2.63
2022-09-14T04:35:32.327Z,2.85
2022-09-14T04:38:02.076Z,2.00
2022-09-14T04:40:30.474Z,3.03
2022-09-14T04:42:58.871Z,2.97
2022-09-14T04:45:27.629Z,2.80
2022-09-14T04:47:56.033Z,2.25
2022-09-14T04:50:24.382Z,2.47
2022-09-14T04:52:52.717Z,2.00
2022-09-14T04:55:24.180Z,2.13
2022-09-14T04:57:52.674Z,2.20
2022-09-14T05:00:21.760Z,2.63
2022-09-14T05:02:50.209Z,2.47
2022-09-14T05:05:18.723Z,2.72
2022-09-14T05:07:47.154Z,2.33
2022-09-14T05:10:15.758Z,2.05
2022-09-14T05:12:45.511Z,1.80
2022-09-14T05:15:14.151Z,2.58
2022-09-14T05:17:42.544Z,2.20
2022-09-14T05:20:11.643Z,2.42
2022-09-14T05:22:40.067Z,2.63
2022-09-14T05:25:09.551Z,2.40
2022-09-14T05:27:37.908Z,2.63
2022-09-14T05:30:09.925Z,2.40
2022-09-14T05:32:38.304Z,2.72
2022-09-14T05:35:07.834Z,2.72
2022-09-14T05:37:36.514Z,2.42
2022-09-14T05:40:06.390Z,2.33
2022-09-14T05:42:34.793Z,2.67
2022-09-14T05:45:03.357Z,2.85
2022-09-14T05:47:38.379Z,2.35
2022-09-14T05:50:09.543Z,3.58
2022-09-14T05:52:37.953Z,3.45
2022-09-14T05:55:07.934Z,3.78
2022-09-14T05:57:36.310Z,3.58
2022-09-14T06:00:06.484Z,3.78
2022-09-14T06:02:36.250Z,3.05
2022-09-14T06:05:05.096Z,2.95
2022-09-14T06:07:33.581Z,2.20
2022-09-14T06:10:01.992Z,2.78
2022-09-14T06:12:30.474Z,2.75
2022-09-14T06:14:58.884Z,2.60
2022-09-14T06:17:27.293Z,2.67
2022-09-14T06:20:01.047Z,2.63
2022-09-14T06:22:33.291Z,2.80
2022-09-14T06:25:01.805Z,2.20
2022-09-14T06:27:30.162Z,2.42
2022-09-14T06:29:58.536Z,1.75
2022-09-14T06:32:27.376Z,2.13
2022-09-14T06:34:57.191Z,2.15
2022-09-14T06:37:25.618Z,2.90
2022-09-14T06:39:54.056Z,2.67
2022-09-14T06:42:22.508Z,2.30
2022-09-14T06:44:50.901Z,2.13
2022-09-14T06:47:19.350Z,2.25
2022-09-14T06:49:49.960Z,2.72
2022-09-14T06:52:19.721Z,3.05
2022-09-14T06:54:48.110Z,2.47
2022-09-14T06:57:16.498Z,2.72
2022-09-14T06:59:45.118Z,2.58
2022-09-14T07:02:15.756Z,2.90
2022-09-14T07:04:44.281Z,2.75
2022-09-14T07:07:15.463Z,3.63
2022-09-14T07:09:45.259Z,4.40
2022-09-14T07:12:13.780Z,3.70
2022-09-14T07:14:42.324Z,2.58
2022-09-14T07:17:10.708Z,3.05
2022-09-14T07:19:39.087Z,2.42
2022-09-14T07:22:07.631Z,2.92
2022-09-14T07:24:36.058Z,2.60
2022-09-14T07:27:06.101Z,3.60
2022-09-14T07:29:34.710Z,2.78
2022-09-14T07:32:03.945Z,2.72
2022-09-14T07:34:32.384Z,2.35
2022-09-14T07:37:00.834Z,2.47
2022-09-14T07:39:29.255Z,3.85
2022-09-14T07:41:57.668Z,2.65
2022-09-14T07:44:28.182Z,2.80
2022-09-14T07:46:56.619Z,2.92
2022-09-14T07:49:25.460Z,3.47
2022-09-14T07:51:54.996Z,3.55
2022-09-14T07:54:23.433Z,3.22
2022-09-14T07:56:51.841Z,3.13
2022-09-14T07:59:37.239Z,3.10
2022-09-14T08:02:09.149Z,3.47
2022-09-14T08:04:39.410Z,4.25
2022-09-14T08:07:09.211Z,2.85
2022-09-14T08:09:39.532Z,3.22
2022-09-14T08:12:08.143Z,3.63
2022-09-14T08:14:37.037Z,3.38
2022-09-14T08:17:06.891Z,3.05
2022-09-14T08:19:35.645Z,4.30
2022-09-14T08:22:04.289Z,4.82
2022-09-14T08:24:33.527Z,3.58
2022-09-14T08:27:01.983Z,4.32
2022-09-14T08:29:30.487Z,3.80
2022-09-14T08:31:59.088Z,4.15
2022-09-14T08:34:29.150Z,4.63
2022-09-14T08:36:57.592Z,4.97
2022-09-14T08:39:26.099Z,4.45
2022-09-14T08:41:57.651Z,4.30
2022-09-14T08:44:29.883Z,4.63
2022-09-14T08:47:03.274Z,4.35
2022-09-14T08:49:48.260Z,4.25
2022-09-14T08:52:27.121Z,5.07
2022-09-14T08:54:59.849Z,4.47
2022-09-14T08:57:40.589Z,4.97
2022-09-14T09:00:14.205Z,5.40
2022-09-14T09:03:08.858Z,5.03
2022-09-14T09:05:49.242Z,4.88
2022-09-14T09:08:28.778Z,5.35
2022-09-14T09:10:59.927Z,4.90
2022-09-14T09:13:34.637Z,5.65
2022-09-14T09:16:07.760Z,5.10
2022-09-14T09:18:42.310Z,4.50
2022-09-14T09:21:17.661Z,4.55
2022-09-14T09:23:46.702Z,4.50
2022-09-14T09:26:25.675Z,5.22
2022-09-14T09:28:58.674Z,5.93
2022-09-14T09:31:34.019Z,4.70
2022-09-14T09:34:04.127Z,6.15
2022-09-14T09:36:38.219Z,4.47
2022-09-14T09:39:07.621Z,3.88
2022-09-14T09:41:46.395Z,4.28
2022-09-14T09:44:15.284Z,4.30
2022-09-14T09:46:49.756Z,4.38
2022-09-14T09:49:23.207Z,4.00
2022-09-14T09:51:54.346Z,4.20
2022-09-14T09:54:33.443Z,4.88
2022-09-14T09:57:04.996Z,4.80
2022-09-14T09:59:36.944Z,4.45
2022-09-14T10:02:31.286Z,5.03
2022-09-14T10:05:03.421Z,5.80
2022-09-14T10:07:36.572Z,5.18
2022-09-14T10:10:08.669Z,5.32
2022-09-14T10:12:40.420Z,5.18
2022-09-14T10:15:17.853Z,6.43
2022-09-14T10:18:09.220Z,4.97
2022-09-14T10:20:40.069Z,4.65
2022-09-14T10:23:26.636Z,5.88
2022-09-14T10:26:24.134Z,4.95
2022-09-14T10:28:53.470Z,4.30
2022-09-14T10:31:32.410Z,5.60
2022-09-14T10:34:01.965Z,4.60
2022-09-14T10:36:32.593Z,5.38
2022-09-14T10:39:16.566Z,4.13
2022-09-14T10:41:53.767Z,4.80
2022-09-14T10:45:03.991Z,5.53
2022-09-14T10:48:25.603Z,4.55
2022-09-14T10:51:03.751Z,4.60
2022-09-14T10:53:46.300Z,5.95
2022-09-14T10:56:23.272Z,6.28
2022-09-14T10:59:21.003Z,5.95
2022-09-14T11:02:25.319Z,6.30
2022-09-14T11:05:15.101Z,5.90
2022-09-14T11:08:05.737Z,6.03
2022-09-14T11:10:43.597Z,5.18
2022-09-14T11:13:45.185Z,5.80
2022-09-14T11:16:36.534Z,4.47
2022-09-14T11:19:17.183Z,5.65
2022-09-14T11:21:56.808Z,6.20
2022-09-14T11:24:34.361Z,4.90
2022-09-14T11:27:09.375Z,5.25
2022-09-14T11:29:45.679Z,5.10
2022-09-14T11:32:22.003Z,6.00
2022-09-14T11:34:58.137Z,5.65
2022-09-14T11:37:38.286Z,6.88
2022-09-14T11:40:21.006Z,6.18
2022-09-14T11:42:58.169Z,6.22
2022-09-14T11:45:33.061Z,5.00
2022-09-14T11:48:40.815Z,6.63
2022-09-14T11:51:07.618Z,6.35
2022-09-14T11:53:37.085Z,5.15
2022-09-14T11:56:05.915Z,5.55
2022-09-14T11:58:34.772Z,6.57
2022-09-14T12:01:32.603Z,5.43
2022-09-14T12:04:17.666Z,5.43
2022-09-14T12:06:55.609Z,4.47
2022-09-14T12:09:45.946Z,4.38
2022-09-14T12:12:38.868Z,7.95
2022-09-14T12:15:34.135Z,4.82
2022-09-14T12:18:28.356Z,3.78
2022-09-14T12:21:09.345Z,4.63
2022-09-14T12:23:48.252Z,3.78
2022-09-14T12:26:37.745Z,3.95
2022-09-14T12:29:30.529Z,4.07
2022-09-14T12:32:40.967Z,3.22
2022-09-14T12:35:48.343Z,3.85
2022-09-14T12:38:43.639Z,3.65
2022-09-14T12:42:00.009Z,3.78
2022-09-14T12:44:37.798Z,3.72
2022-09-14T12:47:55.385Z,3.63
2022-09-14T12:50:24.354Z,3.63
2022-09-14T12:53:13.499Z,3.13
2022-09-14T12:56:02.899Z,3.67
2022-09-14T12:58:56.681Z,3.78
2022-09-14T13:01:41.904Z,3.65
2022-09-14T13:04:17.071Z,4.75
2022-09-14T13:06:48.423Z,6.57
2022-09-14T13:09:22.033Z,5.18
2022-09-14T13:11:57.741Z,3.70
2022-09-14T13:14:31.186Z,3.65
2022-09-14T13:17:03.420Z,3.75
2022-09-14T13:19:34.349Z,3.67
2022-09-14T13:22:04.099Z,3.90
2022-09-14T13:24:45.306Z,2.97
2022-09-14T13:27:23.425Z,4.50
2022-09-14T13:30:02.656Z,3.70
2022-09-14T13:32:31.685Z,7.35
2022-09-14T13:35:00.718Z,6.90
2022-09-14T13:37:29.252Z,5.25
2022-09-14T13:40:00.811Z,4.78
2022-09-14T13:42:29.519Z,3.83
2022-09-14T13:44:58.012Z,4.57
2022-09-14T13:47:27.352Z,3.95
2022-09-14T13:49:56.853Z,4.30
2022-09-14T13:53:00.113Z,4.13
2022-09-14T13:55:29.388Z,4.25
2022-09-14T13:58:22.951Z,6.65
2022-09-14T14:01:04.028Z,4.13
2022-09-14T14:03:39.868Z,3.90
2022-09-14T14:06:26.264Z,3.47
2022-09-14T14:09:00.274Z,4.22
2022-09-14T14:11:37.380Z,3.40
2022-09-14T14:14:19.094Z,3.63
2022-09-14T14:17:29.640Z,3.33
2022-09-14T14:20:00.533Z,3.80
2022-09-14T14:22:33.918Z,6.45
2022-09-14T14:25:18.881Z,3.88
2022-09-14T14:27:49.687Z,2.70
2022-09-14T14:30:21.335Z,5.35
2022-09-14T14:32:52.292Z,4.22
2022-09-14T14:35:23.393Z,5.20
2022-09-14T14:37:52.492Z,3.35
2022-09-14T14:40:21.803Z,3.90
2022-09-14T14:42:52.801Z,3.80
2022-09-14T14:45:24.958Z,3.83
2022-09-14T14:47:55.038Z,2.95
2022-09-14T14:50:27.166Z,2.97
2022-09-14T14:52:55.717Z,3.35
2022-09-14T14:55:27.537Z,3.20
2022-09-14T14:58:01.914Z,2.85
2022-09-14T15:00:33.762Z,3.38
2022-09-14T15:03:02.357Z,16.73
2022-09-14T15:05:31.163Z,4.55
2022-09-14T15:07:59.968Z,3.10
2022-09-14T15:10:30.691Z,3.42
2022-09-14T15:13:00.484Z,3.63
2022-09-14T15:15:29.816Z,3.28
2022-09-14T15:17:58.557Z,9.25
2022-09-14T15:20:27.482Z,5.28
2022-09-14T15:22:55.984Z,5.03
2022-09-14T15:25:24.344Z,2.78
2022-09-14T15:27:52.709Z,2.80
2022-09-14T15:30:22.542Z,2.88
2022-09-14T15:32:50.905Z,6.32
2022-09-14T15:35:19.440Z,3.83
2022-09-14T15:37:48.579Z,2.88
2022-09-14T15:40:17.310Z,3.22
2022-09-14T15:42:45.772Z,2.55
2022-09-14T15:45:14.659Z,3.67
2022-09-14T15:47:47.008Z,2.00
2022-09-14T15:50:16.145Z,2.67
2022-09-14T15:52:44.618Z,5.80
2022-09-14T15:55:13.967Z,3.58
2022-09-14T15:57:42.495Z,3.47
2022-09-14T16:00:15.489Z,3.20
2022-09-14T16:02:45.363Z,3.47
2022-09-14T16:05:16.119Z,3.47
2022-09-14T16:07:44.483Z,2.47
2022-09-14T16:10:12.968Z,2.58
2022-09-14T16:12:41.374Z,2.83
2022-09-14T16:15:11.332Z,4.25
2022-09-14T16:17:39.654Z,3.63
2022-09-14T16:20:11.223Z,3.78
2022-09-14T16:22:39.647Z,4.00
2022-09-14T16:25:08.402Z,3.10
2022-09-14T16:27:36.824Z,3.20
2022-09-14T16:30:06.317Z,2.80
2022-09-14T16:32:34.714Z,3.53
2022-09-14T16:35:07.972Z,2.80
2022-09-14T16:37:38.214Z,3.78
2022-09-14T16:40:07.947Z,3.10
2022-09-14T16:42:36.394Z,3.50
2022-09-14T16:45:05.444Z,3.55
2022-09-14T16:47:33.803Z,2.70
2022-09-14T16:50:02.178Z,3.92
2022-09-14T16:52:30.491Z,2.83
2022-09-14T16:55:00.290Z,3.15
2022-09-14T16:57:29.888Z,3.95
2022-09-14T16:59:58.211Z,3.83
2022-09-14T17:02:26.728Z,3.92
2022-09-14T17:04:55.252Z,2.83
2022-09-14T17:07:23.880Z,2.80
2022-09-14T17:09:52.333Z,2.63
2022-09-14T17:12:22.188Z,3.40
2022-09-14T17:14:50.808Z,2.92
2022-09-14T17:17:19.181Z,3.47
2022-09-14T17:19:47.661Z,3.05
2022-09-14T17:22:16.070Z,2.95
2022-09-14T17:24:44.432Z,2.75
2022-09-14T17:27:12.779Z,2.85
2022-09-14T17:29:42.579Z,3.42
2022-09-14T17:32:14.737Z,4.32
2022-09-14T17:34:43.586Z,4.40
2022-09-14T17:37:12.053Z,3.72
2022-09-14T17:39:40.483Z,4.97
2022-09-14T17:42:09.026Z,2.88
2022-09-14T17:44:37.432Z,3.13
2022-09-14T17:47:07.680Z,2.90
2022-09-14T17:49:36.073Z,3.47
2022-09-14T17:52:04.477Z,3.47
2022-09-14T17:54:33.655Z,4.25
2022-09-14T17:57:02.119Z,6.18
2022-09-14T17:59:30.511Z,5.45
2022-09-14T18:01:58.940Z,6.28
2022-09-14T18:04:28.798Z,4.88
2022-09-14T18:06:57.171Z,4.07
2022-09-14T18:09:25.689Z,4.38
2022-09-14T18:11:57.295Z,4.45
2022-09-14T18:14:26.152Z,6.60
2022-09-14T18:16:54.628Z,4.93
2022-09-14T18:19:23.573Z,4.47
2022-09-14T18:21:53.918Z,4.15
2022-09-14T18:24:23.022Z,3.90
2022-09-14T18:26:52.283Z,3.88
2022-09-14T18:29:23.285Z,4.22
2022-09-14T18:31:54.174Z,4.13
2022-09-14T18:34:24.530Z,4.10
2022-09-14T18:36:54.598Z,4.07
2022-09-14T18:39:23.665Z,4.07
2022-09-14T18:41:54.114Z,5.03
2022-09-14T18:44:24.080Z,5.07
2022-09-14T18:46:54.800Z,3.42
2022-09-14T18:49:23.403Z,3.55
2022-09-14T18:51:53.641Z,4.63
2022-09-14T18:54:27.455Z,3.35
2022-09-14T18:56:56.675Z,3.40
2022-09-14T18:59:25.608Z,3.97
2022-09-14T19:01:55.603Z,4.45
2022-09-14T19:04:24.322Z,3.70
2022-09-14T19:06:54.715Z,3.22
2022-09-14T19:09:23.709Z,3.85
2022-09-14T19:11:52.525Z,4.20
2022-09-14T19:14:21.347Z,4.45
2022-09-14T19:16:51.791Z,3.70
2022-09-14T19:19:20.839Z,3.78
2022-09-14T19:21:49.674Z,4.07
2022-09-14T19:24:20.167Z,3.70
2022-09-14T19:26:51.641Z,4.03
2022-09-14T19:29:23.800Z,4.72
2022-09-14T19:31:54.702Z,3.88
2022-09-14T19:34:25.875Z,4.57
2022-09-14T19:36:55.165Z,3.78
2022-09-14T19:39:26.817Z,3.97
2022-09-14T19:41:55.308Z,4.35
2022-09-14T19:44:24.014Z,3.50
2022-09-14T19:46:53.177Z,3.72
2022-09-14T19:49:25.042Z,4.45
2022-09-14T19:51:54.510Z,3.50
2022-09-14T19:54:24.377Z,3.30
2022-09-14T19:56:53.256Z,3.40
2022-09-14T19:59:22.033Z,3.28
2022-09-14T20:01:51.329Z,3.38
2022-09-14T20:04:20.699Z,3.05
2022-09-14T20:06:49.758Z,3.17
2022-09-14T20:09:21.673Z,2.67
2022-09-14T20:11:53.824Z,2.67
2022-09-14T20:14:24.738Z,2.80
2022-09-14T20:16:56.303Z,2.10
2022-09-14T20:19:28.047Z,1.90
2022-09-14T20:21:57.891Z,2.13
2022-09-14T20:24:31.244Z,2.50
2022-09-14T20:27:02.443Z,2.83
2022-09-14T20:29:34.537Z,2.25
2022-09-14T20:32:04.229Z,2.55
2022-09-14T20:34:34.407Z,2.58
2022-09-14T20:37:02.770Z,3.00
2022-09-14T20:39:31.308Z,2.40
2022-09-14T20:42:01.021Z,1.95
2022-09-14T20:44:29.391Z,2.08
2022-09-14T20:46:57.975Z,2.38
2022-09-14T20:49:26.730Z,3.85
2022-09-14T20:51:56.677Z,2.38
2022-09-14T20:54:25.158Z,3.22
2022-09-14T20:56:53.569Z,2.85
2022-09-14T20:59:23.742Z,2.88
2022-09-14T21:01:53.807Z,4.82
2022-09-14T21:04:24.666Z,2.67
2022-09-14T21:06:55.656Z,2.55
2022-09-14T21:09:26.448Z,2.85
2022-09-14T21:11:55.512Z,2.70
2022-09-14T21:14:25.445Z,2.13
2022-09-14T21:16:56.852Z,3.05
2022-09-14T21:19:28.038Z,3.90
2022-09-14T21:21:56.752Z,3.67
2022-09-14T21:24:25.408Z,2.75
2022-09-14T21:26:53.900Z,2.55
2022-09-14T21:29:24.830Z,1.92
2022-09-14T21:31:53.989Z,1.70
2022-09-14T21:34:22.702Z,2.40
2022-09-14T21:36:52.911Z,2.22
2022-09-14T21:39:24.465Z,1.65
2022-09-14T21:41:58.297Z,1.30
2022-09-14T21:44:31.954Z,2.03
2022-09-14T21:47:00.625Z,1.83
2022-09-14T21:49:29.170Z,12.43
2022-09-14T21:51:57.488Z,2.10
2022-09-14T21:54:25.941Z,1.55
2022-09-14T21:56:55.152Z,1.67
2022-09-14T21:59:24.969Z,1.80
2022-09-14T22:01:54.841Z,1.38
2022-09-14T22:04:26.241Z,0.80
2022-09-14T22:06:55.241Z,1.08
2022-09-14T22:09:27.311Z,0.80
2022-09-14T22:11:56.126Z,1.38
2022-09-14T22:14:27.721Z,1.00
2022-09-14T22:16:57.729Z,1.10
2022-09-14T22:19:29.010Z,1.17
2022-09-14T22:21:57.989Z,1.40
2022-09-14T22:24:38.747Z,1.00
2022-09-14T22:27:09.190Z,1.70
2022-09-14T22:29:38.481Z,0.93
2022-09-14T22:32:10.464Z,0.73
2022-09-14T22:34:39.667Z,1.00
2022-09-14T22:37:08.043Z,0.70
2022-09-14T22:39:36.620Z,1.25
2022-09-14T22:42:05.928Z,0.73
2022-09-14T22:44:34.241Z,0.80
2022-09-14T22:47:02.527Z,0.98
2022-09-14T22:49:32.174Z,1.35
2022-09-14T22:52:00.597Z,0.73
2022-09-14T22:54:29.032Z,1.02
2022-09-14T22:56:57.572Z,1.00
2022-09-14T22:59:26.201Z,0.98
2022-09-14T23:01:54.546Z,1.15
2022-09-14T23:04:23.276Z,1.92
2022-09-14T23:06:52.921Z,1.05
2022-09-14T23:09:23.594Z,0.68
2022-09-14T23:11:51.934Z,0.75
2022-09-14T23:14:20.287Z,1.25
2022-09-14T23:16:48.639Z,0.80
2022-09-14T23:19:18.921Z,0.60
2022-09-14T23:21:48.889Z,0.93
2022-09-14T23:24:18.573Z,1.05
2022-09-14T23:26:46.871Z,1.13
2022-09-14T23:29:18.004Z,1.30
2022-09-14T23:31:46.393Z,1.40
2022-09-14T23:34:14.739Z,1.10
2022-09-14T23:36:43.068Z,1.05
2022-09-14T23:39:11.596Z,1.02
2022-09-14T23:41:41.297Z,0.95
2022-09-14T23:44:12.501Z,1.00
2022-09-14T23:46:41.069Z,0.88
2022-09-14T23:49:09.601Z,0.77
2022-09-14T23:51:37.916Z,1.17
2022-09-14T23:54:08.248Z,0.80
2022-09-14T23:56:38.615Z,1.27
2022-09-14T23:59:11.422Z,1.00
